sensor_id;sensor_type;location;lat;lon;timestamp;pressure;altitude;pressure_sealevel;temperature;humidity
38780;BME280;29273;49.962;9.768;2023-05-07T00:01:42;99812.38;;;18.26;52.82
38780;BME280;29273;49.962;9.768;2023-05-07T00:04:08;99817.19;;;18.24;52.99
38780;BME280;29273;49.962;9.768;2023-05-07T00:06:33;99809.38;;;18.22;52.80
38780;BME280;29273;49.962;9.768;2023-05-07T00:08:59;99807.22;;;18.19;53.10
38780;BME280;29273;49.962;9.768;2023-05-07T00:11:27;99808.84;;;18.20;52.71
38780;BME280;29273;49.962;9.768;2023-05-07T00:13:52;99807.22;;;18.19;52.98
38780;BME280;29273;49.962;9.768;2023-05-07T00:16:18;99801.31;;;18.17;52.97
38780;BME280;29273;49.962;9.768;2023-05-07T00:18:44;99799.66;;;18.16;53.08
38780;BME280;29273;49.962;9.768;2023-05-07T00:21:10;99803.16;;;18.17;53.24
38780;BME280;29273;49.962;9.768;2023-05-07T00:23:36;99804.78;;;18.18;53.37
38780;BME280;29273;49.962;9.768;2023-05-07T00:26:01;99802.34;;;18.16;53.47
38780;BME280;29273;49.962;9.768;2023-05-07T00:28:27;99806.06;;;18.15;53.47
38780;BME280;29273;49.962;9.768;2023-05-07T00:30:52;99806.34;;;18.14;53.13
38780;BME280;29273;49.962;9.768;2023-05-07T00:33:18;99806.34;;;18.14;53.35
38780;BME280;29273;49.962;9.768;2023-05-07T00:35:45;99800.16;;;18.13;53.33
38780;BME280;29273;49.962;9.768;2023-05-07T00:38:11;99795.88;;;18.12;53.43
38780;BME280;29273;49.962;9.768;2023-05-07T00:40:36;99808.22;;;18.13;53.28
38780;BME280;29273;49.962;9.768;2023-05-07T00:43:01;99803.09;;;18.11;53.46
38780;BME280;29273;49.962;9.768;2023-05-07T00:45:27;99808.22;;;18.13;53.19
38780;BME280;29273;49.962;9.768;2023-05-07T00:47:58;99809.09;;;18.19;52.22
38780;BME280;29273;49.962;9.768;2023-05-07T00:50:25;99801.00;;;18.14;53.48
38780;BME280;29273;49.962;9.768;2023-05-07T00:52:51;99804.97;;;18.11;53.42
38780;BME280;29273;49.962;9.768;2023-05-07T00:55:17;99813.25;;;18.09;53.44
38780;BME280;29273;49.962;9.768;2023-05-07T00:57:43;99807.91;;;18.09;53.66
38780;BME280;29273;49.962;9.768;2023-05-07T01:00:10;99800.91;;;18.08;53.37
38780;BME280;29273;49.962;9.768;2023-05-07T01:02:38;99801.75;;;18.09;53.49
38780;BME280;29273;49.962;9.768;2023-05-07T01:05:05;99799.06;;;18.09;52.82
38780;BME280;29273;49.962;9.768;2023-05-07T01:07:33;99802.00;;;18.07;53.46
38780;BME280;29273;49.962;9.768;2023-05-07T01:10:00;99792.56;;;18.05;53.24
38780;BME280;29273;49.962;9.768;2023-05-07T01:12:26;99800.06;;;18.03;53.77
38780;BME280;29273;49.962;9.768;2023-05-07T01:14:53;99796.59;;;18.02;53.75
38780;BME280;29273;49.962;9.768;2023-05-07T01:17:19;99793.34;;;18.00;53.16
38780;BME280;29273;49.962;9.768;2023-05-07T01:19:45;99790.91;;;17.99;53.20
38780;BME280;29273;49.962;9.768;2023-05-07T01:22:15;99789.59;;;18.01;52.62
38780;BME280;29273;49.962;9.768;2023-05-07T01:24:48;99786.84;;;17.96;53.43
38780;BME280;29273;49.962;9.768;2023-05-07T01:27:15;99780.94;;;17.94;53.46
38780;BME280;29273;49.962;9.768;2023-05-07T01:29:40;99781.75;;;17.94;53.60
38780;BME280;29273;49.962;9.768;2023-05-07T01:32:07;99776.38;;;17.94;53.26
38780;BME280;29273;49.962;9.768;2023-05-07T01:34:35;99778.31;;;17.99;52.49
38780;BME280;29273;49.962;9.768;2023-05-07T01:37:02;99778.28;;;17.94;53.17
38780;BME280;29273;49.962;9.768;2023-05-07T01:39:29;99781.50;;;17.96;53.32
38780;BME280;29273;49.962;9.768;2023-05-07T01:41:55;99783.63;;;17.94;53.05
38780;BME280;29273;49.962;9.768;2023-05-07T01:44:23;99781.75;;;17.94;53.08
38780;BME280;29273;49.962;9.768;2023-05-07T01:46:49;99783.63;;;17.94;53.39
38780;BME280;29273;49.962;9.768;2023-05-07T01:49:16;99786.56;;;17.92;53.36
38780;BME280;29273;49.962;9.768;2023-05-07T01:51:42;99785.75;;;17.92;53.45
38780;BME280;29273;49.962;9.768;2023-05-07T01:54:08;99787.84;;;17.90;53.42
38780;BME280;29273;49.962;9.768;2023-05-07T01:56:34;99786.50;;;17.87;52.96
38780;BME280;29273;49.962;9.768;2023-05-07T01:59:01;99783.25;;;17.85;53.46
38780;BME280;29273;49.962;9.768;2023-05-07T02:01:27;99781.59;;;17.84;53.20
38780;BME280;29273;49.962;9.768;2023-05-07T02:03:53;99784.53;;;17.83;53.43
38780;BME280;29273;49.962;9.768;2023-05-07T02:06:23;99782.34;;;17.80;53.18
38780;BME280;29273;49.962;9.768;2023-05-07T02:08:51;99787.94;;;17.78;53.12
38780;BME280;29273;49.962;9.768;2023-05-07T02:11:16;99785.78;;;17.75;52.72
38780;BME280;29273;49.962;9.768;2023-05-07T02:13:42;99789.78;;;17.72;52.90
38780;BME280;29273;49.962;9.768;2023-05-07T02:16:08;99788.13;;;17.71;53.06
38780;BME280;29273;49.962;9.768;2023-05-07T02:18:33;99795.63;;;17.69;51.75
38780;BME280;29273;49.962;9.768;2023-05-07T02:20:59;99797.75;;;17.67;52.52
38780;BME280;29273;49.962;9.768;2023-05-07T02:23:24;99803.34;;;17.66;52.83
38780;BME280;29273;49.962;9.768;2023-05-07T02:25:50;99805.47;;;17.64;52.47
38780;BME280;29273;49.962;9.768;2023-05-07T02:28:17;99800.34;;;17.62;52.52
38780;BME280;29273;49.962;9.768;2023-05-07T02:30:48;99797.38;;;17.59;52.69
38780;BME280;29273;49.962;9.768;2023-05-07T02:33:14;99796.53;;;17.58;52.67
38780;BME280;29273;49.962;9.768;2023-05-07T02:35:40;99789.84;;;17.55;53.04
38780;BME280;29273;49.962;9.768;2023-05-07T02:38:06;99791.69;;;17.55;52.40
38780;BME280;29273;49.962;9.768;2023-05-07T02:40:32;99797.53;;;17.52;52.55
38780;BME280;29273;49.962;9.768;2023-05-07T02:43:04;99800.47;;;17.50;52.42
38780;BME280;29273;49.962;9.768;2023-05-07T02:45:29;99793.75;;;17.48;52.83
38780;BME280;29273;49.962;9.768;2023-05-07T02:47:56;99790.50;;;17.46;52.31
38780;BME280;29273;49.962;9.768;2023-05-07T02:50:21;99790.75;;;17.44;52.60
38780;BME280;29273;49.962;9.768;2023-05-07T02:52:46;99792.03;;;17.42;52.82
38780;BME280;29273;49.962;9.768;2023-05-07T02:55:13;99786.69;;;17.42;52.66
38780;BME280;29273;49.962;9.768;2023-05-07T02:57:39;99800.56;;;17.38;52.83
38780;BME280;29273;49.962;9.768;2023-05-07T03:00:16;99804.13;;;17.44;51.65
38780;BME280;29273;49.962;9.768;2023-05-07T03:02:50;99809.09;;;17.35;52.38
38780;BME280;29273;49.962;9.768;2023-05-07T03:05:16;99806.69;;;17.34;52.68
38780;BME280;29273;49.962;9.768;2023-05-07T03:07:42;99809.59;;;17.32;52.93
38780;BME280;29273;49.962;9.768;2023-05-07T03:10:11;99810.41;;;17.33;52.66
38780;BME280;29273;49.962;9.768;2023-05-07T03:12:37;99810.63;;;17.31;53.42
38780;BME280;29273;49.962;9.768;2023-05-07T03:15:03;99807.16;;;17.31;53.35
38780;BME280;29273;49.962;9.768;2023-05-07T03:17:30;99815.44;;;17.29;53.29
38780;BME280;29273;49.962;9.768;2023-05-07T03:19:55;99807.41;;;17.29;53.24
38780;BME280;29273;49.962;9.768;2023-05-07T03:22:21;99807.66;;;17.28;53.23
38780;BME280;29273;49.962;9.768;2023-05-07T03:24:46;99809.28;;;17.29;53.15
38780;BME280;29273;49.962;9.768;2023-05-07T03:27:12;99810.88;;;17.30;53.24
38780;BME280;29273;49.962;9.768;2023-05-07T03:29:38;99807.41;;;17.29;53.26
38780;BME280;29273;49.962;9.768;2023-05-07T03:32:03;99810.88;;;17.30;53.17
38780;BME280;29273;49.962;9.768;2023-05-07T03:34:29;99811.13;;;17.28;53.24
38780;BME280;29273;49.962;9.768;2023-05-07T03:36:55;99815.69;;;17.28;53.53
38780;BME280;29273;49.962;9.768;2023-05-07T03:39:22;99803.34;;;17.27;53.21
38780;BME280;29273;49.962;9.768;2023-05-07T03:41:48;99800.66;;;17.27;53.51
38780;BME280;29273;49.962;9.768;2023-05-07T03:44:13;99805.47;;;17.25;53.53
38780;BME280;29273;49.962;9.768;2023-05-07T03:46:40;99808.94;;;17.25;53.12
38780;BME280;29273;49.962;9.768;2023-05-07T03:49:08;99811.63;;;17.25;53.38
38780;BME280;29273;49.962;9.768;2023-05-07T03:51:34;99804.66;;;17.24;53.16
38780;BME280;29273;49.962;9.768;2023-05-07T03:54:02;99807.34;;;17.24;53.55
38780;BME280;29273;49.962;9.768;2023-05-07T03:56:29;99810.00;;;17.24;53.34
38780;BME280;29273;49.962;9.768;2023-05-07T03:58:57;99813.50;;;17.25;53.08
38780;BME280;29273;49.962;9.768;2023-05-07T04:01:22;99811.63;;;17.25;53.33
38780;BME280;29273;49.962;9.768;2023-05-07T04:03:48;99824.75;;;17.27;53.23
38780;BME280;29273;49.962;9.768;2023-05-07T04:06:15;99820.00;;;17.29;53.01
38780;BME280;29273;49.962;9.768;2023-05-07T04:08:43;99816.16;;;17.25;53.60
38780;BME280;29273;49.962;9.768;2023-05-07T04:11:09;99821.53;;;17.25;53.42
38780;BME280;29273;49.962;9.768;2023-05-07T04:13:36;99826.63;;;17.26;53.05
38780;BME280;29273;49.962;9.768;2023-05-07T04:16:04;99821.28;;;17.26;53.01
38780;BME280;29273;49.962;9.768;2023-05-07T04:18:31;99828.25;;;17.27;53.30
38780;BME280;29273;49.962;9.768;2023-05-07T04:20:57;99822.06;;;17.27;53.79
38780;BME280;29273;49.962;9.768;2023-05-07T04:23:22;99821.84;;;17.28;53.64
38780;BME280;29273;49.962;9.768;2023-05-07T04:25:48;99820.00;;;17.29;53.91
38780;BME280;29273;49.962;9.768;2023-05-07T04:28:21;99809.03;;;17.30;53.08
38780;BME280;29273;49.962;9.768;2023-05-07T04:30:47;99818.66;;;17.31;53.65
38780;BME280;29273;49.962;9.768;2023-05-07T04:33:14;99814.94;;;17.32;53.41
38780;BME280;29273;49.962;9.768;2023-05-07T04:35:42;99809.59;;;17.32;54.01
38780;BME280;29273;49.962;9.768;2023-05-07T04:38:08;99810.63;;;17.31;53.70
38780;BME280;29273;49.962;9.768;2023-05-07T04:40:35;99817.13;;;17.35;53.32
38780;BME280;29273;49.962;9.768;2023-05-07T04:43:01;99819.22;;;17.33;53.50
38780;BME280;29273;49.962;9.768;2023-05-07T04:45:30;99823.78;;;17.33;53.29
38780;BME280;29273;49.962;9.768;2023-05-07T04:47:55;99826.47;;;17.33;53.48
38780;BME280;29273;49.962;9.768;2023-05-07T04:50:21;99823.78;;;17.33;53.12
38780;BME280;29273;49.962;9.768;2023-05-07T04:52:49;99830.75;;;17.34;53.05
38780;BME280;29273;49.962;9.768;2023-05-07T04:55:15;99830.75;;;17.34;53.19
38780;BME280;29273;49.962;9.768;2023-05-07T04:57:41;99835.63;;;17.37;53.12
38780;BME280;29273;49.962;9.768;2023-05-07T05:00:09;99833.75;;;17.37;53.13
38780;BME280;29273;49.962;9.768;2023-05-07T05:02:36;99839.91;;;17.38;53.30
38780;BME280;29273;49.962;9.768;2023-05-07T05:05:02;99838.88;;;17.39;53.18
38780;BME280;29273;49.962;9.768;2023-05-07T05:07:29;99835.94;;;17.41;53.10
38780;BME280;29273;49.962;9.768;2023-05-07T05:09:54;99837.31;;;17.43;53.19
38780;BME280;29273;49.962;9.768;2023-05-07T05:12:21;99839.75;;;17.45;53.24
38780;BME280;29273;49.962;9.768;2023-05-07T05:14:46;99846.97;;;17.44;53.51
38780;BME280;29273;49.962;9.768;2023-05-07T05:17:13;99852.63;;;17.48;52.93
38780;BME280;29273;49.962;9.768;2023-05-07T05:19:38;99851.59;;;17.49;53.10
38780;BME280;29273;49.962;9.768;2023-05-07T05:22:04;99863.91;;;17.50;53.17
38780;BME280;29273;49.962;9.768;2023-05-07T05:24:30;99863.66;;;17.51;53.15
38780;BME280;29273;49.962;9.768;2023-05-07T05:26:56;99859.94;;;17.52;52.97
38780;BME280;29273;49.962;9.768;2023-05-07T05:29:22;99861.53;;;17.53;53.46
38780;BME280;29273;49.962;9.768;2023-05-07T05:31:48;99858.63;;;17.55;52.88
38780;BME280;29273;49.962;9.768;2023-05-07T05:34:13;99857.56;;;17.56;52.96
38780;BME280;29273;49.962;9.768;2023-05-07T05:36:40;99860.81;;;17.58;53.06
38780;BME280;29273;49.962;9.768;2023-05-07T05:39:06;99861.38;;;17.60;52.57
38780;BME280;29273;49.962;9.768;2023-05-07T05:41:31;99867.31;;;17.62;53.32
38780;BME280;29273;49.962;9.768;2023-05-07T05:43:57;99859.59;;;17.66;53.04
38780;BME280;29273;49.962;9.768;2023-05-07T05:46:23;99860.16;;;17.68;53.09
38780;BME280;29273;49.962;9.768;2023-05-07T05:48:50;99868.50;;;17.71;53.00
38780;BME280;29273;49.962;9.768;2023-05-07T05:51:16;99866.38;;;17.73;52.65
38780;BME280;29273;49.962;9.768;2023-05-07T05:53:41;99867.75;;;17.76;52.60
38780;BME280;29273;49.962;9.768;2023-05-07T05:56:07;99876.34;;;17.78;52.49
38780;BME280;29273;49.962;9.768;2023-05-07T05:58:34;99876.66;;;17.82;52.61
38780;BME280;29273;49.962;9.768;2023-05-07T06:01:03;99879.09;;;17.83;52.28
38780;BME280;29273;49.962;9.768;2023-05-07T06:03:29;99867.09;;;17.86;52.59
38780;BME280;29273;49.962;9.768;2023-05-07T06:05:57;99869.31;;;17.89;52.71
38780;BME280;29273;49.962;9.768;2023-05-07T06:08:23;99868.53;;;17.93;53.12
38780;BME280;29273;49.962;9.768;2023-05-07T06:10:49;99872.59;;;17.96;52.08
38780;BME280;29273;49.962;9.768;2023-05-07T06:13:15;99873.72;;;18.00;52.69
38780;BME280;29273;49.962;9.768;2023-05-07T06:15:41;99879.41;;;18.04;52.68
38780;BME280;29273;49.962;9.768;2023-05-07T06:18:09;99874.59;;;18.06;52.13
38780;BME280;29273;49.962;9.768;2023-05-07T06:20:35;99866.06;;;18.09;52.35
38780;BME280;29273;49.962;9.768;2023-05-07T06:23:03;99873.84;;;18.10;52.35
38780;BME280;29273;49.962;9.768;2023-05-07T06:25:31;99881.13;;;18.15;52.03
38780;BME280;29273;49.962;9.768;2023-05-07T06:27:57;99884.38;;;18.17;52.17
38780;BME280;29273;49.962;9.768;2023-05-07T06:30:24;99892.97;;;18.19;52.12
38780;BME280;29273;49.962;9.768;2023-05-07T06:32:50;99888.97;;;18.22;52.02
38780;BME280;29273;49.962;9.768;2023-05-07T06:35:15;99897.59;;;18.24;51.99
38780;BME280;29273;49.962;9.768;2023-05-07T06:37:41;99905.16;;;18.27;51.58
38780;BME280;29273;49.962;9.768;2023-05-07T06:40:15;99900.34;;;18.29;51.37
38780;BME280;29273;49.962;9.768;2023-05-07T06:42:43;99899.00;;;18.31;51.31
38780;BME280;29273;49.962;9.768;2023-05-07T06:45:26;99909.25;;;18.35;51.70
38780;BME280;29273;49.962;9.768;2023-05-07T06:47:54;99905.81;;;18.39;51.42
38780;BME280;29273;49.962;9.768;2023-05-07T06:50:20;99906.13;;;18.43;51.43
38780;BME280;29273;49.962;9.768;2023-05-07T06:52:47;99900.00;;;18.47;51.29
38780;BME280;29273;49.962;9.768;2023-05-07T06:55:12;99894.94;;;18.51;50.89
38780;BME280;29273;49.962;9.768;2023-05-07T06:57:38;99897.13;;;18.54;50.90
38780;BME280;29273;49.962;9.768;2023-05-07T07:00:05;99899.59;;;18.61;50.99
38780;BME280;29273;49.962;9.768;2023-05-07T07:02:39;99900.97;;;18.63;51.07
38780;BME280;29273;49.962;9.768;2023-05-07T07:05:05;99894.84;;;18.68;50.98
38780;BME280;29273;49.962;9.768;2023-05-07T07:07:31;99897.03;;;18.71;50.71
38780;BME280;29273;49.962;9.768;2023-05-07T07:09:56;99905.38;;;18.75;50.36
38780;BME280;29273;49.962;9.768;2023-05-07T07:12:22;99901.63;;;18.76;50.49
38780;BME280;29273;49.962;9.768;2023-05-07T07:14:49;99906.25;;;18.80;50.45
38780;BME280;29273;49.962;9.768;2023-05-07T07:17:15;99902.25;;;18.83;50.50
38780;BME280;29273;49.962;9.768;2023-05-07T07:19:41;99907.13;;;18.86;50.62
38780;BME280;29273;49.962;9.768;2023-05-07T07:22:07;99905.00;;;18.88;50.84
38780;BME280;29273;49.962;9.768;2023-05-07T07:24:32;99903.69;;;18.91;50.60
38780;BME280;29273;49.962;9.768;2023-05-07T07:27:01;99904.78;;;18.95;50.69
38780;BME280;29273;49.962;9.768;2023-05-07T07:29:27;99906.97;;;18.98;50.34
38780;BME280;29273;49.962;9.768;2023-05-07T07:31:53;99909.16;;;19.01;50.53
38780;BME280;29273;49.962;9.768;2023-05-07T07:34:20;99906.75;;;19.04;50.32
38780;BME280;29273;49.962;9.768;2023-05-07T07:36:45;99905.44;;;19.07;49.98
38780;BME280;29273;49.962;9.768;2023-05-07T07:39:14;99911.13;;;19.11;49.95
38780;BME280;29273;49.962;9.768;2023-05-07T07:41:40;99915.16;;;19.13;50.17
38780;BME280;29273;49.962;9.768;2023-05-07T07:44:06;99916.53;;;19.16;50.40
38780;BME280;29273;49.962;9.768;2023-05-07T07:46:34;99917.06;;;19.18;50.02
38780;BME280;29273;49.962;9.768;2023-05-07T07:49:00;99915.75;;;19.20;50.52
38780;BME280;29273;49.962;9.768;2023-05-07T07:51:26;99918.19;;;19.22;50.05
38780;BME280;29273;49.962;9.768;2023-05-07T07:53:51;99916.84;;;19.25;50.39
38780;BME280;29273;49.962;9.768;2023-05-07T07:56:17;99914.47;;;19.28;50.20
38780;BME280;29273;49.962;9.768;2023-05-07T07:58:43;99917.72;;;19.30;50.14
38780;BME280;29273;49.962;9.768;2023-05-07T08:01:08;99916.13;;;19.34;50.26
38780;BME280;29273;49.962;9.768;2023-05-07T08:03:34;99921.00;;;19.37;49.75
38780;BME280;29273;49.962;9.768;2023-05-07T08:06:01;99919.66;;;19.40;50.39
38780;BME280;29273;49.962;9.768;2023-05-07T08:08:26;99916.72;;;19.41;50.22
38780;BME280;29273;49.962;9.768;2023-05-07T08:10:53;99911.09;;;19.43;50.25
38780;BME280;29273;49.962;9.768;2023-05-07T08:13:26;99909.78;;;19.46;50.22
38780;BME280;29273;49.962;9.768;2023-05-07T08:15:51;99899.31;;;19.49;49.94
38780;BME280;29273;49.962;9.768;2023-05-07T08:18:17;99904.97;;;19.53;49.67
38780;BME280;29273;49.962;9.768;2023-05-07T08:20:44;99905.53;;;19.55;50.50
38780;BME280;29273;49.962;9.768;2023-05-07T08:23:15;99901.25;;;19.59;50.16
38780;BME280;29273;49.962;9.768;2023-05-07T08:25:42;99902.09;;;19.65;49.69
38780;BME280;29273;49.962;9.768;2023-05-07T08:28:08;99903.47;;;19.67;49.72
38780;BME280;29273;49.962;9.768;2023-05-07T08:30:34;99917.72;;;19.73;50.04
38780;BME280;29273;49.962;9.768;2023-05-07T08:33:00;99916.19;;;19.77;50.32
38780;BME280;29273;49.962;9.768;2023-05-07T08:35:26;99912.69;;;19.82;49.90
38780;BME280;29273;49.962;9.768;2023-05-07T08:37:52;99914.59;;;19.86;50.18
38780;BME280;29273;49.962;9.768;2023-05-07T08:40:18;99917.31;;;19.91;50.23
38780;BME280;29273;49.962;9.768;2023-05-07T08:42:48;99915.50;;;20.02;50.48
38780;BME280;29273;49.962;9.768;2023-05-07T08:45:15;99919.03;;;20.08;50.06
38780;BME280;29273;49.962;9.768;2023-05-07T08:47:52;99920.94;;;20.18;49.80
38780;BME280;29273;49.962;9.768;2023-05-07T08:50:22;99916.94;;;20.20;48.76
38780;BME280;29273;49.962;9.768;2023-05-07T08:52:49;99918.56;;;20.26;48.98
38780;BME280;29273;49.962;9.768;2023-05-07T08:55:18;99908.91;;;20.30;49.22
38780;BME280;29273;49.962;9.768;2023-05-07T08:57:44;99914.31;;;20.36;48.80
38780;BME280;29273;49.962;9.768;2023-05-07T09:00:12;99916.47;;;20.39;48.58
38780;BME280;29273;49.962;9.768;2023-05-07T09:02:39;99915.66;;;20.43;48.61
38780;BME280;29273;49.962;9.768;2023-05-07T09:05:06;99916.75;;;20.47;48.35
38780;BME280;29273;49.962;9.768;2023-05-07T09:07:34;99924.84;;;20.52;48.71
38780;BME280;29273;49.962;9.768;2023-05-07T09:10:05;99920.00;;;20.60;48.67
38780;BME280;29273;49.962;9.768;2023-05-07T09:12:33;99923.22;;;20.57;47.81
38780;BME280;29273;49.962;9.768;2023-05-07T09:15:01;99915.44;;;20.60;47.98
38780;BME280;29273;49.962;9.768;2023-05-07T09:17:30;99916.56;;;20.64;47.48
38780;BME280;29273;49.962;9.768;2023-05-07T09:19:55;99912.53;;;20.67;47.03
38780;BME280;29273;49.962;9.768;2023-05-07T09:22:21;99910.91;;;20.71;46.97
38780;BME280;29273;49.962;9.768;2023-05-07T09:24:55;99917.66;;;20.74;47.90
38780;BME280;29273;49.962;9.768;2023-05-07T09:27:24;99913.63;;;20.76;47.97
38780;BME280;29273;49.962;9.768;2023-05-07T09:29:51;99911.47;;;20.78;47.25
38780;BME280;29273;49.962;9.768;2023-05-07T09:32:17;99909.88;;;20.77;47.21
38780;BME280;29273;49.962;9.768;2023-05-07T09:34:43;99907.97;;;20.78;47.57
38780;BME280;29273;49.962;9.768;2023-05-07T09:37:12;99906.91;;;20.84;47.54
38780;BME280;29273;49.962;9.768;2023-05-07T09:39:45;99908.50;;;20.85;47.81
38780;BME280;29273;49.962;9.768;2023-05-07T09:42:13;99905.28;;;20.78;46.83
38780;BME280;29273;49.962;9.768;2023-05-07T09:44:41;99900.16;;;20.76;47.13
38780;BME280;29273;49.962;9.768;2023-05-07T09:47:16;99905.28;;;20.78;47.67
38780;BME280;29273;49.962;9.768;2023-05-07T09:49:47;99894.50;;;20.78;47.84
38780;BME280;29273;49.962;9.768;2023-05-07T09:52:14;99892.09;;;20.71;47.90
38780;BME280;29273;49.962;9.768;2023-05-07T09:54:46;99893.97;;;20.70;48.33
38780;BME280;29273;49.962;9.768;2023-05-07T09:57:15;99890.75;;;20.74;47.82
38780;BME280;29273;49.962;9.768;2023-05-07T09:59:43;99885.91;;;20.76;47.48
38780;BME280;29273;49.962;9.768;2023-05-07T10:02:14;99882.94;;;20.82;48.56
38780;BME280;29273;49.962;9.768;2023-05-07T10:04:46;99889.97;;;20.83;47.97
38780;BME280;29273;49.962;9.768;2023-05-07T10:07:16;99894.78;;;20.92;48.31
38780;BME280;29273;49.962;9.768;2023-05-07T10:09:42;99887.81;;;20.96;47.79
38780;BME280;29273;49.962;9.768;2023-05-07T10:12:17;99889.69;;;21.00;47.77
38780;BME280;29273;49.962;9.768;2023-05-07T10:14:45;99893.44;;;21.10;48.03
38780;BME280;29273;49.962;9.768;2023-05-07T10:17:12;99888.63;;;21.12;47.60
38780;BME280;29273;49.962;9.768;2023-05-07T10:19:38;99886.19;;;21.15;47.99
38780;BME280;29273;49.962;9.768;2023-05-07T10:22:05;99887.00;;;21.21;47.13
38780;BME280;29273;49.962;9.768;2023-05-07T10:24:35;99884.81;;;21.28;47.52
38780;BME280;29273;49.962;9.768;2023-05-07T10:27:08;99886.19;;;21.36;47.97
38780;BME280;29273;49.962;9.768;2023-05-07T10:29:57;99881.84;;;21.40;47.94
38780;BME280;29273;49.962;9.768;2023-05-07T10:32:40;99884.25;;;21.47;47.78
38780;BME280;29273;49.962;9.768;2023-05-07T10:35:17;99886.44;;;21.50;47.70
38780;BME280;29273;49.962;9.768;2023-05-07T10:37:45;99881.63;;;21.52;47.78
38780;BME280;29273;49.962;9.768;2023-05-07T10:40:11;99885.88;;;21.58;47.24
38780;BME280;29273;49.962;9.768;2023-05-07T10:42:37;99880.50;;;21.63;46.98
38780;BME280;29273;49.962;9.768;2023-05-07T10:45:14;99878.31;;;21.75;48.05
38780;BME280;29273;49.962;9.768;2023-05-07T10:50:38;99874.22;;;21.83;47.10
38780;BME280;29273;49.962;9.768;2023-05-07T10:55:52;99866.66;;;21.95;47.93
38780;BME280;29273;49.962;9.768;2023-05-07T10:58:42;99870.69;;;21.98;47.28
38780;BME280;29273;49.962;9.768;2023-05-07T11:01:50;99873.34;;;22.08;47.84
38780;BME280;29273;49.962;9.768;2023-05-07T11:04:21;99873.34;;;22.08;46.59
38780;BME280;29273;49.962;9.768;2023-05-07T11:15:11;99857.88;;;22.29;46.92
38780;BME280;29273;49.962;9.768;2023-05-07T11:17:58;99854.38;;;22.29;47.24
38780;BME280;29273;49.962;9.768;2023-05-07T11:20:50;99838.72;;;22.31;47.01
38780;BME280;29273;49.962;9.768;2023-05-07T11:26:19;99840.31;;;22.37;44.97
38780;BME280;29273;49.962;9.768;2023-05-07T11:28:45;99842.19;;;22.42;44.74
38780;BME280;29273;49.962;9.768;2023-05-07T11:31:11;99842.66;;;22.49;45.68
38780;BME280;29273;49.962;9.768;2023-05-07T11:33:38;99847.22;;;22.53;44.84
38780;BME280;29273;49.962;9.768;2023-05-07T11:36:08;99834.22;;;22.61;44.99
38780;BME280;29273;49.962;9.768;2023-05-07T11:38:38;99836.63;;;22.62;45.75
38780;BME280;29273;49.962;9.768;2023-05-07T11:41:04;99842.25;;;22.71;44.69
38780;BME280;29273;49.962;9.768;2023-05-07T11:43:31;99845.41;;;22.78;44.62
38780;BME280;29273;49.962;9.768;2023-05-07T11:46:10;99832.94;;;22.87;46.29
38780;BME280;29273;49.962;9.768;2023-05-07T11:48:36;99830.22;;;22.87;44.23
38780;BME280;29273;49.962;9.768;2023-05-07T11:51:06;99833.94;;;22.97;45.44
38780;BME280;29273;49.962;9.768;2023-05-07T11:53:38;99832.00;;;23.02;44.96
38780;BME280;29273;49.962;9.768;2023-05-07T11:56:12;99831.41;;;23.11;45.24
38780;BME280;29273;49.962;9.768;2023-05-07T11:58:38;99834.91;;;23.11;44.01
38780;BME280;29273;49.962;9.768;2023-05-07T12:01:07;99837.22;;;23.23;45.55
38780;BME280;29273;49.962;9.768;2023-05-07T12:03:33;99832.94;;;23.22;44.06
38780;BME280;29273;49.962;9.768;2023-05-07T12:05:59;99830.69;;;23.29;43.63
38780;BME280;29273;49.962;9.768;2023-05-07T12:08:25;99833.63;;;23.33;42.68
38780;BME280;29273;49.962;9.768;2023-05-07T12:10:51;99834.41;;;23.38;42.91
38780;BME280;29273;49.962;9.768;2023-05-07T12:13:17;99834.06;;;23.45;43.83
38780;BME280;29273;49.962;9.768;2023-05-07T12:15:43;99825.88;;;23.50;43.44
38780;BME280;29273;49.962;9.768;2023-05-07T12:18:11;99828.25;;;23.57;43.73
38780;BME280;29273;49.962;9.768;2023-05-07T12:20:37;99823.84;;;23.61;43.28
38780;BME280;29273;49.962;9.768;2023-05-07T12:23:03;99822.72;;;23.67;43.12
38780;BME280;29273;49.962;9.768;2023-05-07T12:25:34;99818.25;;;23.76;43.99
38780;BME280;29273;49.962;9.768;2023-05-07T12:28:00;99822.06;;;23.75;42.83
38780;BME280;29273;49.962;9.768;2023-05-07T12:30:26;99817.69;;;23.79;42.03
38780;BME280;29273;49.962;9.768;2023-05-07T12:32:54;99825.19;;;23.88;43.63
38780;BME280;29273;49.962;9.768;2023-05-07T12:35:30;99823.53;;;23.92;44.13
38780;BME280;29273;49.962;9.768;2023-05-07T12:37:56;99824.09;;;23.89;42.77
38780;BME280;29273;49.962;9.768;2023-05-07T12:40:34;99823.31;;;23.88;42.24
38780;BME280;29273;49.962;9.768;2023-05-07T12:43:00;99825.69;;;23.90;42.74
38780;BME280;29273;49.962;9.768;2023-05-07T12:45:25;99805.69;;;23.91;42.28
38780;BME280;29273;49.962;9.768;2023-05-07T12:47:51;99805.09;;;23.94;42.73
38780;BME280;29273;49.962;9.768;2023-05-07T12:50:17;99804.81;;;23.95;42.65
38780;BME280;29273;49.962;9.768;2023-05-07T12:52:44;99810.16;;;24.00;43.70
38780;BME280;29273;49.962;9.768;2023-05-07T12:55:13;99809.78;;;24.07;43.09
38780;BME280;29273;49.962;9.768;2023-05-07T12:57:52;99798.09;;;24.12;42.95
38780;BME280;29273;49.962;9.768;2023-05-07T13:00:33;99792.91;;;24.15;43.69
38780;BME280;29273;49.962;9.768;2023-05-07T13:02:58;99790.50;;;24.14;42.06
38780;BME280;29273;49.962;9.768;2023-05-07T13:05:24;99795.03;;;24.18;41.91
38780;BME280;29273;49.962;9.768;2023-05-07T13:07:53;99790.06;;;24.26;43.05
38780;BME280;29273;49.962;9.768;2023-05-07T13:10:19;99786.84;;;24.24;41.22
38780;BME280;29273;49.962;9.768;2023-05-07T13:12:44;99788.97;;;24.27;41.62
38780;BME280;29273;49.962;9.768;2023-05-07T13:15:10;99794.00;;;24.33;41.71
38780;BME280;29273;49.962;9.768;2023-05-07T13:17:35;99784.69;;;24.39;41.42
38780;BME280;29273;49.962;9.768;2023-05-07T13:20:01;99788.34;;;24.49;41.16